Archival Weather

Chicago O'Hare International

Chicago, Illinois (KORD)

Report from: Thursday, December 29, 2022 3:51 AM CST
Current time: Friday, June 21, 2024 4:09 AM CDT

Current weather – Weather history – Daily summaries
Weather forecast

Temperature7.2°C (45.0°F)
Wind chill3.3°C (37.9°F)
Dew point3.3°C (37.9°F)
Winds 14 kts (7.2 m/s, 16.1 mph) South (190°)
Wind gusts 24 kts (12.3 m/s, 27.6 mph)
Visibility10 mi. (16.1 km)
Clouds Scattered clouds 25,000 ft. (7,620 m)
Altimeter29.77 in.Hg (1008 mB)
Relative humidity76 %
Density altitude-655 ft. (-200 m)
Sea-level pressure100.8 kPa (1008 mB, 29.78 in.Hg)
Remarks Automated weather observing station with precipitation discriminator
Flight conditions Visual Meteorological Conditions
Raw dataKORD 290951Z 19014G24KT 10SM SCT250 07/03 A2977 RMK AO2 SLP083 T00720033
An error has occurred. This application may no longer respond until reloaded. Reload 🗙